Time;durP1;ratioP1;P1;durP2;ratioP2;P2;SDS_P1;SDS_P2;PMS_P1;PMS_P2;Temp;Humidity;BMP_temperature;BMP_pressure;BME280_temperature;BME280_humidity;BME280_pressure;Samples;Min_cycle;Max_cycle;Signal;HPM_P1;HPM_P2
2022/04/09 00:00:17;;;;;;;0.35;0.30;;;;;;;;;;5088779;28;20032;-71
2022/04/09 00:02:43;;;;;;;0.63;0.30;;;;;;;;;;5088633;28;20050;-71
2022/04/09 00:05:11;;;;;;;0.38;0.38;;;;;;;;;;5070710;28;20026;-71
2022/04/09 00:07:37;;;;;;;0.22;0.22;;;;;;;;;;5069200;28;20376;-71
2022/04/09 00:10:05;;;;;;;0.20;0.20;;;;;;;;;;5079848;28;20041;-72
2022/04/09 00:12:31;;;;;;;0.30;0.30;;;;;;;;;;5088144;28;20016;-71
2022/04/09 00:14:57;;;;;;;0.82;0.40;;;;;;;;;;5077284;28;20064;-71
2022/04/09 00:17:23;;;;;;;0.20;0.20;;;;;;;;;;5088033;28;20480;-71
2022/04/09 00:19:49;;;;;;;0.20;0.20;;;;;;;;;;5088230;28;20086;-71
2022/04/09 00:22:15;;;;;;;1.55;0.30;;;;;;;;;;5087540;28;20020;-71
2022/04/09 00:24:41;;;;;;;1.00;0.38;;;;;;;;;;5088187;28;20481;-72
2022/04/09 00:27:07;;;;;;;0.25;0.22;;;;;;;;;;5087346;28;20056;-72
2022/04/09 00:29:33;;;;;;;0.38;0.30;;;;;;;;;;5088213;28;20119;-71
2022/04/09 00:31:59;;;;;;;0.30;0.30;;;;;;;;;;5088741;28;20024;-72
2022/04/09 00:34:25;;;;;;;0.20;0.20;;;;;;;;;;5091658;28;20040;-71
2022/04/09 00:36:51;;;;;;;0.30;0.30;;;;;;;;;;5091281;28;20112;-72
2022/04/09 00:39:17;;;;;;;1.38;0.30;;;;;;;;;;5091103;28;20056;-72
2022/04/09 00:41:47;;;;;;;0.30;0.30;;;;;;;;;;5090617;28;20066;-71
2022/04/09 00:44:19;;;;;;;0.30;0.30;;;;;;;;;;5092003;28;20052;-71
2022/04/09 00:46:46;;;;;;;0.22;0.22;;;;;;;;;;5088218;28;20020;-72
2022/04/09 00:49:15;;;;;;;0.30;0.20;;;;;;;;;;5082977;28;20031;-72
2022/04/09 00:51:42;;;;;;;0.50;0.30;;;;;;;;;;5099059;28;20480;-72
2022/04/09 00:54:10;;;;;;;0.20;0.20;;;;;;;;;;5091367;28;20559;-71
2022/04/09 00:56:37;;;;;;;0.50;0.38;;;;;;;;;;5090651;28;20445;-71
2022/04/09 00:59:06;;;;;;;0.30;0.25;;;;;;;;;;5083025;28;20016;-72
2022/04/09 01:01:33;;;;;;;0.28;0.28;;;;;;;;;;5091757;28;20465;-72
2022/04/09 01:03:59;;;;;;;0.28;0.28;;;;;;;;;;5091046;28;20036;-72
2022/04/09 01:06:26;;;;;;;0.30;0.30;;;;;;;;;;5070595;28;20028;-71
2022/04/09 01:08:52;;;;;;;0.20;0.20;;;;;;;;;;5090291;28;20028;-71
2022/04/09 01:11:18;;;;;;;0.30;0.30;;;;;;;;;;5084390;28;20412;-71
2022/04/09 01:13:44;;;;;;;0.20;0.20;;;;;;;;;;5080820;28;20048;-72
2022/04/09 01:16:11;;;;;;;0.28;0.28;;;;;;;;;;5087713;28;20024;-71
2022/04/09 01:18:38;;;;;;;0.20;0.20;;;;;;;;;;5091175;28;20031;-71
2022/04/09 01:21:04;;;;;;;0.20;0.20;;;;;;;;;;5091020;28;21416;-71
2022/04/09 01:23:31;;;;;;;0.30;0.30;;;;;;;;;;5094450;28;20059;-71
2022/04/09 01:25:59;;;;;;;0.20;0.20;;;;;;;;;;5090380;28;20028;-71
2022/04/09 01:28:26;;;;;;;0.20;0.20;;;;;;;;;;5082639;28;20054;-71
2022/04/09 01:30:53;;;;;;;0.20;0.20;;;;;;;;;;5091009;28;20039;-72
2022/04/09 01:33:19;;;;;;;0.20;0.20;;;;;;;;;;5090914;28;20314;-72
2022/04/09 01:35:45;;;;;;;0.30;0.30;;;;;;;;;;5089272;28;20016;-72
2022/04/09 01:38:12;;;;;;;1.27;0.30;;;;;;;;;;5093618;28;20017;-71
2022/04/09 01:40:39;;;;;;;0.28;0.28;;;;;;;;;;5091424;28;20034;-72
2022/04/09 01:43:05;;;;;;;0.40;0.40;;;;;;;;;;5089805;28;20028;-71
2022/04/09 01:45:31;;;;;;;0.30;0.30;;;;;;;;;;5085202;28;20058;-72
2022/04/09 01:47:58;;;;;;;0.30;0.20;;;;;;;;;;5090785;28;20020;-71
2022/04/09 01:50:27;;;;;;;0.40;0.30;;;;;;;;;;5082230;28;20039;-71
2022/04/09 01:52:53;;;;;;;0.30;0.30;;;;;;;;;;5092384;28;20477;-71
2022/04/09 01:55:19;;;;;;;0.38;0.38;;;;;;;;;;5072112;28;20140;-71
2022/04/09 01:57:46;;;;;;;0.30;0.30;;;;;;;;;;5090470;28;20051;-72
2022/04/09 02:00:13;;;;;;;0.30;0.30;;;;;;;;;;5090043;28;20028;-71
2022/04/09 02:02:39;;;;;;;0.60;0.40;;;;;;;;;;5090794;28;20067;-71
2022/04/09 02:05:06;;;;;;;0.20;0.20;;;;;;;;;;5090059;28;20055;-71
2022/04/09 02:07:32;;;;;;;0.40;0.40;;;;;;;;;;5091459;28;20021;-71
2022/04/09 02:09:58;;;;;;;0.63;0.40;;;;;;;;;;5090033;28;20036;-71
2022/04/09 02:12:24;;;;;;;0.30;0.30;;;;;;;;;;5090718;28;20073;-71
2022/04/09 02:14:50;;;;;;;0.30;0.30;;;;;;;;;;5087319;28;20028;-72
2022/04/09 02:17:16;;;;;;;0.30;0.30;;;;;;;;;;5071821;28;20024;-71
2022/04/09 02:19:42;;;;;;;0.38;0.38;;;;;;;;;;5090279;28;20112;-71
2022/04/09 02:22:08;;;;;;;0.30;0.30;;;;;;;;;;5092896;28;20089;-71
2022/04/09 02:24:34;;;;;;;0.30;0.30;;;;;;;;;;5095723;28;20013;-71
2022/04/09 02:27:00;;;;;;;0.40;0.40;;;;;;;;;;5089719;28;20027;-72
2022/04/09 02:29:26;;;;;;;0.50;0.50;;;;;;;;;;5090052;28;20038;-71
2022/04/09 02:31:53;;;;;;;0.40;0.40;;;;;;;;;;5090725;28;20032;-71
2022/04/09 02:34:19;;;;;;;0.40;0.40;;;;;;;;;;5090542;28;20020;-71
2022/04/09 02:36:45;;;;;;;0.30;0.30;;;;;;;;;;5089872;28;20016;-72
2022/04/09 02:39:11;;;;;;;0.43;0.43;;;;;;;;;;5091965;28;20012;-72
2022/04/09 02:41:37;;;;;;;0.40;0.40;;;;;;;;;;5092570;28;20039;-71
2022/04/09 02:44:03;;;;;;;0.60;0.60;;;;;;;;;;5091147;28;20473;-71
2022/04/09 02:46:29;;;;;;;0.43;0.35;;;;;;;;;;5091086;28;20043;-71
2022/04/09 02:48:55;;;;;;;1.85;0.45;;;;;;;;;;5081786;28;20576;-71
2022/04/09 02:51:21;;;;;;;0.40;0.40;;;;;;;;;;5086498;28;20027;-71
2022/04/09 02:53:47;;;;;;;0.55;0.47;;;;;;;;;;5085361;28;20454;-72
2022/04/09 02:56:13;;;;;;;1.10;0.60;;;;;;;;;;5088726;28;20095;-71
2022/04/09 02:58:39;;;;;;;0.30;0.30;;;;;;;;;;5087651;28;20020;-71
2022/04/09 03:01:06;;;;;;;0.60;0.60;;;;;;;;;;5088589;28;20074;-72
2022/04/09 03:03:32;;;;;;;0.60;0.60;;;;;;;;;;5079844;28;20013;-71
2022/04/09 03:05:58;;;;;;;0.95;0.80;;;;;;;;;;5087413;28;20392;-71
2022/04/09 03:08:24;;;;;;;1.25;0.85;;;;;;;;;;5093559;28;20020;-71
2022/04/09 03:10:50;;;;;;;0.90;0.90;;;;;;;;;;5089209;28;20028;-71
2022/04/09 03:13:16;;;;;;;0.60;0.60;;;;;;;;;;5081055;28;20449;-71
2022/04/09 03:15:42;;;;;;;0.90;0.90;;;;;;;;;;5088234;28;20022;-72
2022/04/09 03:18:10;;;;;;;0.80;0.80;;;;;;;;;;5088887;28;20026;-71
2022/04/09 03:20:36;;;;;;;0.80;0.80;;;;;;;;;;5089607;28;20024;-71
2022/04/09 03:23:02;;;;;;;1.95;0.90;;;;;;;;;;5091985;28;20027;-72
2022/04/09 03:25:29;;;;;;;1.52;1.25;;;;;;;;;;5088810;28;20012;-71
2022/04/09 03:27:55;;;;;;;1.55;1.25;;;;;;;;;;5089214;28;20028;-71
2022/04/09 03:30:21;;;;;;;1.83;1.20;;;;;;;;;;5088466;28;20101;-72
2022/04/09 03:32:47;;;;;;;1.70;1.40;;;;;;;;;;5087763;28;20062;-71
2022/04/09 03:35:13;;;;;;;2.13;1.30;;;;;;;;;;5078960;28;20032;-72
2022/04/09 03:37:40;;;;;;;2.45;1.65;;;;;;;;;;5089954;28;20485;-71
2022/04/09 03:40:07;;;;;;;2.78;1.45;;;;;;;;;;5071250;28;20447;-71
2022/04/09 03:42:33;;;;;;;2.35;1.67;;;;;;;;;;5089616;28;20085;-71
2022/04/09 03:44:59;;;;;;;2.50;1.40;;;;;;;;;;5086579;28;20035;-71
2022/04/09 03:47:25;;;;;;;1.88;1.50;;;;;;;;;;5088619;28;20484;-71
2022/04/09 03:49:51;;;;;;;1.17;1.08;;;;;;;;;;5088315;28;20525;-71
2022/04/09 03:52:17;;;;;;;1.45;1.35;;;;;;;;;;5088479;28;20055;-71
2022/04/09 03:54:43;;;;;;;1.40;1.30;;;;;;;;;;5090489;28;20107;-71
2022/04/09 03:57:09;;;;;;;0.95;0.95;;;;;;;;;;5088556;28;20489;-71
2022/04/09 03:59:36;;;;;;;1.45;1.20;;;;;;;;;;5088632;28;20597;-71
2022/04/09 04:02:02;;;;;;;1.40;1.30;;;;;;;;;;5088423;28;20122;-71
2022/04/09 04:04:28;;;;;;;1.27;1.17;;;;;;;;;;5088223;28;20154;-71
2022/04/09 04:06:54;;;;;;;2.17;1.50;;;;;;;;;;5088352;28;20103;-71
2022/04/09 04:09:20;;;;;;;1.50;1.38;;;;;;;;;;5091543;28;20538;-71
2022/04/09 04:11:46;;;;;;;1.58;1.48;;;;;;;;;;5083899;28;20031;-72
2022/04/09 04:14:12;;;;;;;1.55;1.42;;;;;;;;;;5090392;28;20015;-71
2022/04/09 04:16:39;;;;;;;1.40;1.30;;;;;;;;;;5091934;28;20024;-71
2022/04/09 04:19:14;;;;;;;2.38;1.38;;;;;;;;;;5073658;28;20126;-71
2022/04/09 04:21:40;;;;;;;1.75;1.40;;;;;;;;;;5084601;28;20020;-71
2022/04/09 04:24:06;;;;;;;1.67;1.33;;;;;;;;;;5100065;28;20370;-71
2022/04/09 04:26:32;;;;;;;1.33;1.20;;;;;;;;;;5092516;28;20028;-71
2022/04/09 04:28:58;;;;;;;1.40;1.20;;;;;;;;;;5083687;28;20058;-71
2022/04/09 04:31:24;;;;;;;1.30;1.20;;;;;;;;;;5092093;28;20115;-71
2022/04/09 04:33:50;;;;;;;1.30;1.20;;;;;;;;;;5092493;28;20384;-71
2022/04/09 04:36:16;;;;;;;2.15;1.17;;;;;;;;;;5091472;28;20024;-71
2022/04/09 04:38:42;;;;;;;1.25;1.15;;;;;;;;;;5097092;28;20031;-71
2022/04/09 04:41:08;;;;;;;1.10;0.93;;;;;;;;;;5091877;28;20032;-72
2022/04/09 04:43:34;;;;;;;3.65;1.55;;;;;;;;;;5090471;28;20020;-71
2022/04/09 04:46:00;;;;;;;2.13;1.33;;;;;;;;;;5091258;28;20036;-72
2022/04/09 04:48:26;;;;;;;1.45;1.35;;;;;;;;;;5092110;28;20081;-71
2022/04/09 04:50:52;;;;;;;1.58;1.48;;;;;;;;;;5091746;28;20036;-71
2022/04/09 04:53:18;;;;;;;3.70;1.80;;;;;;;;;;5093915;28;20027;-71
2022/04/09 04:55:44;;;;;;;2.13;1.92;;;;;;;;;;5095586;28;20023;-71
2022/04/09 04:58:10;;;;;;;3.15;2.05;;;;;;;;;;5090441;28;20077;-71
2022/04/09 05:00:36;;;;;;;5.03;2.08;;;;;;;;;;5091553;28;20505;-72
2022/04/09 05:03:02;;;;;;;6.18;2.50;;;;;;;;;;5091534;28;20088;-71
2022/04/09 05:05:28;;;;;;;2.88;2.00;;;;;;;;;;5091688;28;20111;-71
2022/04/09 05:07:54;;;;;;;2.28;2.08;;;;;;;;;;5073550;28;20619;-71
2022/04/09 05:10:25;;;;;;;3.17;2.47;;;;;;;;;;5096182;28;20036;-71
2022/04/09 05:12:52;;;;;;;2.92;2.47;;;;;;;;;;5091018;28;20027;-71
2022/04/09 05:15:18;;;;;;;2.45;2.25;;;;;;;;;;5085414;28;20025;-71
2022/04/09 05:17:44;;;;;;;4.25;2.78;;;;;;;;;;5089753;28;20016;-71
2022/04/09 05:20:12;;;;;;;8.07;3.30;;;;;;;;;;5090447;28;20043;-71
2022/04/09 05:22:41;;;;;;;4.70;3.25;;;;;;;;;;5091366;28;20613;-71
2022/04/09 05:25:07;;;;;;;10.90;3.67;;;;;;;;;;5089228;28;20612;-71
2022/04/09 05:27:33;;;;;;;7.25;3.60;;;;;;;;;;5082822;28;20024;-71
2022/04/09 05:29:59;;;;;;;6.05;3.80;;;;;;;;;;5090816;28;20113;-72
2022/04/09 05:32:25;;;;;;;5.45;3.70;;;;;;;;;;5091035;28;20016;-71
2022/04/09 05:34:51;;;;;;;5.85;3.50;;;;;;;;;;5091107;28;20154;-71
2022/04/09 05:37:17;;;;;;;8.27;4.18;;;;;;;;;;5088987;28;20477;-71
2022/04/09 05:39:46;;;;;;;6.55;4.22;;;;;;;;;;5088194;28;20024;-71
2022/04/09 05:42:12;;;;;;;4.80;3.72;;;;;;;;;;5082386;28;20035;-71
2022/04/09 05:44:38;;;;;;;10.00;4.50;;;;;;;;;;5088367;28;20032;-71
2022/04/09 05:47:04;;;;;;;9.80;3.72;;;;;;;;;;5081502;28;20042;-71
2022/04/09 05:49:30;;;;;;;7.43;4.30;;;;;;;;;;5090679;28;20050;-71
2022/04/09 05:51:57;;;;;;;6.65;4.57;;;;;;;;;;5090251;28;20032;-71
2022/04/09 05:54:23;;;;;;;5.90;3.90;;;;;;;;;;5084650;28;20048;-71
2022/04/09 05:56:49;;;;;;;11.35;5.00;;;;;;;;;;5081166;28;20053;-71
2022/04/09 05:59:15;;;;;;;7.30;4.38;;;;;;;;;;5090417;28;20028;-71
2022/04/09 06:01:41;;;;;;;9.40;4.32;;;;;;;;;;5072378;28;20039;-71
2022/04/09 06:04:07;;;;;;;5.28;3.70;;;;;;;;;;5089088;28;20050;-71
2022/04/09 06:06:33;;;;;;;7.55;4.30;;;;;;;;;;5089316;28;20016;-71
2022/04/09 06:08:59;;;;;;;6.50;3.95;;;;;;;;;;5090264;28;20096;-71
2022/04/09 06:11:25;;;;;;;5.78;3.63;;;;;;;;;;5090443;28;20020;-71
2022/04/09 06:13:51;;;;;;;9.48;4.03;;;;;;;;;;5086415;28;20128;-71
2022/04/09 06:16:17;;;;;;;8.73;4.20;;;;;;;;;;5089216;28;20444;-71
2022/04/09 06:18:43;;;;;;;8.57;4.07;;;;;;;;;;5089968;28;20111;-71
2022/04/09 06:21:10;;;;;;;6.75;4.15;;;;;;;;;;5089343;28;20023;-71
2022/04/09 06:23:36;;;;;;;7.50;3.95;;;;;;;;;;5090382;28;20127;-71
2022/04/09 06:26:02;;;;;;;6.88;3.78;;;;;;;;;;5096209;28;20036;-71
2022/04/09 06:28:29;;;;;;;10.95;3.30;;;;;;;;;;5089858;28;20027;-71
2022/04/09 06:30:55;;;;;;;5.63;3.03;;;;;;;;;;5089707;28;20032;-72
2022/04/09 06:33:21;;;;;;;5.50;3.75;;;;;;;;;;5089135;28;20031;-71
2022/04/09 06:35:48;;;;;;;5.85;3.00;;;;;;;;;;5088464;28;20020;-71
2022/04/09 06:38:14;;;;;;;4.65;2.92;;;;;;;;;;5085805;28;20035;-71
2022/04/09 06:40:40;;;;;;;6.93;3.47;;;;;;;;;;5079309;28;20032;-71
2022/04/09 06:43:06;;;;;;;11.68;3.70;;;;;;;;;;5087774;28;20024;-72
2022/04/09 06:45:33;;;;;;;8.60;3.15;;;;;;;;;;5088830;28;20047;-71
2022/04/09 06:47:59;;;;;;;9.82;4.13;;;;;;;;;;5089575;28;20039;-72
2022/04/09 06:50:25;;;;;;;6.72;3.28;;;;;;;;;;5088847;28;20032;-71
2022/04/09 06:52:51;;;;;;;6.47;3.38;;;;;;;;;;5088134;28;20104;-72
2022/04/09 06:55:17;;;;;;;9.77;3.95;;;;;;;;;;5094280;28;20054;-71
2022/04/09 06:57:44;;;;;;;7.32;3.90;;;;;;;;;;5090227;28;20020;-71
2022/04/09 07:00:11;;;;;;;7.20;3.95;;;;;;;;;;5072153;28;20024;-72
2022/04/09 07:02:37;;;;;;;8.27;4.20;;;;;;;;;;5090732;28;20665;-71
2022/04/09 07:05:03;;;;;;;10.98;4.10;;;;;;;;;;5089595;28;20031;-72
2022/04/09 07:07:29;;;;;;;11.20;4.03;;;;;;;;;;5089841;28;20373;-73
2022/04/09 07:10:02;;;;;;;14.85;4.00;;;;;;;;;;5084432;28;20508;-71
2022/04/09 07:12:28;;;;;;;5.63;3.30;;;;;;;;;;5089633;28;20107;-71
2022/04/09 07:14:54;;;;;;;6.32;2.90;;;;;;;;;;5086358;28;20059;-71
2022/04/09 07:17:21;;;;;;;6.38;3.20;;;;;;;;;;5070495;28;20051;-71
2022/04/09 07:19:47;;;;;;;3.95;2.45;;;;;;;;;;5088914;28;20016;-72
2022/04/09 07:22:13;;;;;;;6.05;2.75;;;;;;;;;;5089216;28;20456;-71
2022/04/09 07:24:40;;;;;;;5.10;2.88;;;;;;;;;;5091938;28;20039;-71
2022/04/09 07:27:07;;;;;;;7.25;2.45;;;;;;;;;;5088425;28;20036;-71
2022/04/09 07:29:33;;;;;;;8.55;2.60;;;;;;;;;;5089638;28;20284;-71
2022/04/09 07:32:00;;;;;;;3.72;2.08;;;;;;;;;;5089086;28;20032;-72
2022/04/09 07:34:26;;;;;;;9.93;2.65;;;;;;;;;;5092381;28;20476;-71
2022/04/09 07:36:52;;;;;;;7.28;2.42;;;;;;;;;;5089916;28;20530;-71
2022/04/09 07:39:25;;;;;;;4.07;2.10;;;;;;;;;;5090299;28;20436;-71
2022/04/09 07:41:51;;;;;;;6.30;2.58;;;;;;;;;;5089178;28;20020;-71
2022/04/09 07:44:17;;;;;;;7.10;2.05;;;;;;;;;;5092023;28;20052;-71
2022/04/09 07:46:43;;;;;;;8.55;2.67;;;;;;;;;;5088975;28;20016;-71
2022/04/09 07:49:09;;;;;;;4.90;2.05;;;;;;;;;;5092964;28;20130;-71
2022/04/09 07:51:35;;;;;;;3.50;2.03;;;;;;;;;;5092374;28;20103;-71
2022/04/09 07:54:01;;;;;;;6.97;2.53;;;;;;;;;;5092240;28;20448;-72
2022/04/09 07:56:27;;;;;;;9.90;2.53;;;;;;;;;;5066226;28;20035;-71
2022/04/09 07:58:53;;;;;;;6.43;2.40;;;;;;;;;;5093402;28;20032;-71
2022/04/09 08:01:19;;;;;;;4.00;2.13;;;;;;;;;;5092709;28;20402;-71
2022/04/09 08:03:45;;;;;;;4.75;2.10;;;;;;;;;;5092966;28;20027;-71
2022/04/09 08:06:11;;;;;;;5.53;2.72;;;;;;;;;;5092820;28;20180;-71
2022/04/09 08:08:37;;;;;;;7.85;2.55;;;;;;;;;;5097960;28;20520;-71
2022/04/09 08:11:04;;;;;;;12.13;2.78;;;;;;;;;;5099435;28;20036;-71
2022/04/09 08:13:30;;;;;;;7.13;2.17;;;;;;;;;;5066003;28;20119;-71
2022/04/09 08:15:56;;;;;;;6.07;1.95;;;;;;;;;;5089734;28;20442;-71
2022/04/09 08:18:22;;;;;;;6.88;2.42;;;;;;;;;;5092555;28;20026;-71
2022/04/09 08:20:48;;;;;;;5.57;2.20;;;;;;;;;;5092639;28;20393;-72
2022/04/09 08:23:14;;;;;;;7.25;2.40;;;;;;;;;;5084325;28;20484;-71
2022/04/09 08:25:40;;;;;;;8.63;1.90;;;;;;;;;;5092112;28;20023;-71
2022/04/09 08:28:06;;;;;;;6.97;2.30;;;;;;;;;;5084171;28;20051;-71
2022/04/09 08:30:32;;;;;;;10.10;2.03;;;;;;;;;;5092239;28;20051;-71
2022/04/09 08:33:03;;;;;;;10.07;2.03;;;;;;;;;;5092051;28;20385;-72
2022/04/09 08:35:29;;;;;;;5.65;1.95;;;;;;;;;;5092263;28;20059;-71
2022/04/09 08:37:58;;;;;;;6.90;1.95;;;;;;;;;;5074178;28;20433;-71
2022/04/09 08:40:24;;;;;;;3.05;1.25;;;;;;;;;;5092831;28;20177;-71
2022/04/09 08:42:51;;;;;;;5.60;1.95;;;;;;;;;;5095792;28;20376;-71
2022/04/09 08:45:17;;;;;;;5.43;2.05;;;;;;;;;;5087628;28;20082;-71
2022/04/09 08:47:44;;;;;;;5.50;1.98;;;;;;;;;;5088154;28;20483;-71
2022/04/09 08:50:14;;;;;;;10.98;2.30;;;;;;;;;;5091918;28;20376;-71
2022/04/09 08:52:41;;;;;;;6.07;1.45;;;;;;;;;;5091529;28;20066;-71
2022/04/09 08:55:07;;;;;;;6.35;1.90;;;;;;;;;;5090246;28;20031;-71
2022/04/09 08:57:35;;;;;;;10.32;2.47;;;;;;;;;;5088610;28;20031;-71
2022/04/09 09:00:04;;;;;;;9.65;2.22;;;;;;;;;;5091356;28;20036;-71
2022/04/09 09:02:31;;;;;;;2.58;2.00;;;;;;;;;;5087917;28;20073;-71
2022/04/09 09:04:57;;;;;;;4.47;2.08;;;;;;;;;;5082630;28;20041;-71
2022/04/09 09:07:24;;;;;;;5.78;2.40;;;;;;;;;;5072750;28;20469;-72
2022/04/09 09:09:51;;;;;;;6.57;2.40;;;;;;;;;;5082620;28;20334;-71
2022/04/09 09:12:28;;;;;;;6.53;2.22;;;;;;;;;;5087076;28;20103;-71
2022/04/09 09:14:55;;;;;;;2.55;1.88;;;;;;;;;;5086764;28;20012;-72
2022/04/09 09:17:30;;;;;;;9.10;2.17;;;;;;;;;;5091481;28;20039;-71
2022/04/09 09:19:57;;;;;;;7.88;2.45;;;;;;;;;;5089418;28;20028;-71
2022/04/09 09:22:35;;;;;;;7.30;1.90;;;;;;;;;;5071567;28;20044;-71
2022/04/09 09:25:02;;;;;;;4.50;1.58;;;;;;;;;;5082795;28;20036;-71
2022/04/09 09:27:28;;;;;;;6.18;2.25;;;;;;;;;;5063320;28;20062;-71
2022/04/09 09:29:55;;;;;;;4.15;2.17;;;;;;;;;;5086794;28;20040;-71
2022/04/09 09:32:29;;;;;;;5.72;1.98;;;;;;;;;;5089784;28;20028;-71
2022/04/09 09:35:01;;;;;;;8.40;2.28;;;;;;;;;;5082326;28;20040;-71
2022/04/09 09:37:28;;;;;;;5.93;2.17;;;;;;;;;;5085030;28;20024;-71
2022/04/09 09:39:55;;;;;;;10.70;2.00;;;;;;;;;;5063946;28;20036;-72
2022/04/09 09:42:21;;;;;;;3.78;1.92;;;;;;;;;;5086697;28;20354;-71
2022/04/09 09:44:48;;;;;;;8.75;2.45;;;;;;;;;;5083519;28;20032;-71
2022/04/09 09:47:17;;;;;;;7.22;2.65;;;;;;;;;;5065598;28;20031;-72
2022/04/09 09:49:53;;;;;;;4.75;2.10;;;;;;;;;;5089597;28;20036;-71
2022/04/09 09:52:24;;;;;;;7.45;2.38;;;;;;;;;;5079616;28;20032;-71
2022/04/09 09:54:57;;;;;;;5.35;1.90;;;;;;;;;;5066635;28;20035;-75
2022/04/09 09:57:26;;;;;;;3.45;1.80;;;;;;;;;;5070615;28;20030;-69
2022/04/09 09:59:53;;;;;;;8.65;1.75;;;;;;;;;;5072098;28;20035;-70
2022/04/09 10:02:21;;;;;;;5.40;1.92;;;;;;;;;;5082441;28;20343;-70
2022/04/09 10:04:47;;;;;;;6.25;1.98;;;;;;;;;;5073070;28;20026;-70
2022/04/09 10:07:16;;;;;;;3.72;2.15;;;;;;;;;;5090772;28;20028;-70
2022/04/09 10:09:44;;;;;;;6.03;2.10;;;;;;;;;;5092795;28;20123;-69
2022/04/09 10:12:25;;;;;;;7.90;2.13;;;;;;;;;;5067431;28;20166;-69
2022/04/09 10:14:54;;;;;;;8.88;1.60;;;;;;;;;;5088883;28;20101;-70
2022/04/09 10:17:20;;;;;;;3.83;1.67;;;;;;;;;;5088466;28;20036;-69
2022/04/09 10:19:51;;;;;;;4.10;1.67;;;;;;;;;;5087558;28;20051;-69
2022/04/09 10:22:18;;;;;;;2.42;1.75;;;;;;;;;;5089873;28;20102;-70
2022/04/09 10:24:44;;;;;;;5.88;1.70;;;;;;;;;;5089202;28;20059;-70
2022/04/09 10:27:30;;;;;;;8.48;1.85;;;;;;;;;;5084914;28;20039;-70
2022/04/09 10:30:02;;;;;;;3.85;1.55;;;;;;;;;;5067177;28;20062;-70
2022/04/09 10:32:48;;;;;;;7.03;1.70;;;;;;;;;;5072240;28;20020;-69
2022/04/09 10:35:40;;;;;;;8.90;2.10;;;;;;;;;;5089197;28;20081;-70
2022/04/09 10:38:15;;;;;;;7.90;1.95;;;;;;;;;;5080513;28;20026;-69
2022/04/09 10:40:44;;;;;;;5.40;1.80;;;;;;;;;;5085066;28;20111;-70
2022/04/09 10:43:10;;;;;;;3.92;1.70;;;;;;;;;;5093311;28;20024;-69
2022/04/09 10:45:55;;;;;;;9.40;1.45;;;;;;;;;;5071019;28;20159;-70
2022/04/09 10:48:29;;;;;;;8.45;1.35;;;;;;;;;;5071917;28;20028;-69
2022/04/09 10:51:05;;;;;;;3.58;1.73;;;;;;;;;;5069647;28;20403;-70
2022/04/09 10:53:35;;;;;;;10.95;1.55;;;;;;;;;;5080429;28;20118;-69
2022/04/09 10:56:14;;;;;;;6.07;1.70;;;;;;;;;;5078447;28;20111;-69
2022/04/09 10:59:00;;;;;;;6.28;1.27;;;;;;;;;;5062147;28;20037;-69
2022/04/09 11:01:50;;;;;;;4.32;1.33;;;;;;;;;;5066572;28;20020;-71
2022/04/09 11:04:34;;;;;;;6.10;1.50;;;;;;;;;;5070317;28;20031;-70
2022/04/09 11:07:06;;;;;;;4.15;1.40;;;;;;;;;;5085122;28;20162;-70
2022/04/09 11:09:42;;;;;;;8.15;2.20;;;;;;;;;;5060874;28;20035;-71
2022/04/09 11:12:09;;;;;;;4.55;2.05;;;;;;;;;;5081587;28;20081;-71
2022/04/09 11:14:50;;;;;;;6.32;1.33;;;;;;;;;;5065998;28;20496;-72
2022/04/09 11:17:17;;;;;;;5.57;1.25;;;;;;;;;;5085612;28;20046;-72
2022/04/09 11:19:43;;;;;;;9.45;2.17;;;;;;;;;;5089491;28;20093;-72
2022/04/09 11:22:10;;;;;;;4.70;1.70;;;;;;;;;;5089436;28;20024;-71
2022/04/09 11:24:39;;;;;;;2.42;1.40;;;;;;;;;;5088624;28;20633;-72
2022/04/09 11:27:06;;;;;;;3.85;1.60;;;;;;;;;;5085809;28;20033;-72
2022/04/09 11:29:33;;;;;;;5.70;1.70;;;;;;;;;;5071267;28;20047;-72
2022/04/09 11:31:59;;;;;;;1.58;1.05;;;;;;;;;;5089033;28;20031;-72
2022/04/09 11:34:26;;;;;;;4.65;1.48;;;;;;;;;;5089785;28;20514;-72
2022/04/09 11:37:08;;;;;;;5.15;1.75;;;;;;;;;;5087202;28;20073;-72
2022/04/09 11:39:38;;;;;;;3.92;1.23;;;;;;;;;;5073458;28;20047;-72
2022/04/09 11:42:05;;;;;;;7.22;1.27;;;;;;;;;;5086916;28;20036;-72
2022/04/09 11:44:41;;;;;;;4.75;1.33;;;;;;;;;;5082707;28;20067;-72
2022/04/09 11:47:14;;;;;;;2.90;1.10;;;;;;;;;;5088863;28;20386;-72
2022/04/09 11:49:41;;;;;;;11.52;2.45;;;;;;;;;;5088811;28;20085;-71
2022/04/09 11:52:08;;;;;;;7.90;1.45;;;;;;;;;;5088714;28;20024;-72
2022/04/09 11:54:34;;;;;;;4.28;1.00;;;;;;;;;;5089792;28;20059;-71
2022/04/09 11:57:01;;;;;;;9.80;1.50;;;;;;;;;;5066800;28;20016;-72
2022/04/09 11:59:31;;;;;;;4.43;1.02;;;;;;;;;;5080045;28;20025;-71
2022/04/09 12:02:00;;;;;;;7.60;1.40;;;;;;;;;;5068306;28;20024;-72
2022/04/09 12:04:33;;;;;;;4.82;1.23;;;;;;;;;;5059523;28;20381;-72
2022/04/09 12:07:01;;;;;;;3.15;1.50;;;;;;;;;;5070081;28;20027;-72
2022/04/09 12:09:27;;;;;;;2.50;1.30;;;;;;;;;;5071063;28;20028;-71
2022/04/09 12:11:53;;;;;;;3.88;1.65;;;;;;;;;;5084452;28;20028;-72
2022/04/09 12:14:24;;;;;;;3.33;1.00;;;;;;;;;;5079527;28;20605;-72
2022/04/09 12:16:50;;;;;;;4.78;1.25;;;;;;;;;;5069731;28;20032;-71
2022/04/09 12:19:16;;;;;;;2.28;0.95;;;;;;;;;;5091254;28;20020;-71
2022/04/09 12:21:42;;;;;;;2.47;1.05;;;;;;;;;;5089129;28;20035;-71
2022/04/09 12:24:09;;;;;;;3.33;1.23;;;;;;;;;;5075744;28;20023;-72
2022/04/09 12:26:38;;;;;;;3.70;1.13;;;;;;;;;;5089484;28;20508;-71
2022/04/09 12:29:17;;;;;;;3.50;1.05;;;;;;;;;;5088364;28;20028;-72
2022/04/09 12:31:47;;;;;;;7.00;1.40;;;;;;;;;;5093466;28;20421;-71
2022/04/09 12:34:13;;;;;;;4.03;1.25;;;;;;;;;;5089598;28;20028;-72
2022/04/09 12:37:02;;;;;;;5.53;1.55;;;;;;;;;;5092458;28;20036;-72
2022/04/09 12:39:28;;;;;;;6.32;1.70;;;;;;;;;;5092563;28;20034;-71
2022/04/09 12:41:55;;;;;;;1.92;0.90;;;;;;;;;;5090571;28;20035;-72
2022/04/09 12:44:25;;;;;;;3.50;1.10;;;;;;;;;;5066977;28;20078;-71
2022/04/09 12:46:53;;;;;;;3.38;1.35;;;;;;;;;;5088031;28;20073;-71
2022/04/09 12:49:19;;;;;;;8.88;1.45;;;;;;;;;;5080368;28;20028;-72
2022/04/09 12:51:46;;;;;;;2.72;1.10;;;;;;;;;;5068062;28;20039;-71
2022/04/09 12:54:12;;;;;;;5.78;1.50;;;;;;;;;;5067845;28;20068;-71
2022/04/09 12:56:39;;;;;;;4.63;1.77;;;;;;;;;;5083400;28;20066;-72
2022/04/09 12:59:05;;;;;;;6.03;1.40;;;;;;;;;;5084136;28;20508;-73
2022/04/09 13:01:31;;;;;;;12.13;1.02;;;;;;;;;;5070402;28;20077;-72
2022/04/09 13:03:57;;;;;;;7.03;1.30;;;;;;;;;;5091647;28;20035;-71
2022/04/09 13:06:23;;;;;;;4.30;1.50;;;;;;;;;;5099007;28;20031;-72
2022/04/09 13:08:49;;;;;;;9.77;1.17;;;;;;;;;;5091119;28;20031;-71
2022/04/09 13:11:15;;;;;;;7.38;1.40;;;;;;;;;;5071267;28;20447;-72
2022/04/09 13:13:42;;;;;;;6.07;1.35;;;;;;;;;;5082751;28;20044;-71
2022/04/09 13:16:08;;;;;;;4.13;1.10;;;;;;;;;;5080243;28;20027;-72
2022/04/09 13:18:34;;;;;;;2.42;1.23;;;;;;;;;;5087075;28;20503;-72
2022/04/09 13:21:00;;;;;;;9.27;1.40;;;;;;;;;;5093981;28;20035;-72
2022/04/09 13:23:26;;;;;;;1.80;0.75;;;;;;;;;;5081255;28;20411;-72
2022/04/09 13:25:53;;;;;;;5.30;1.48;;;;;;;;;;5087669;28;20048;-72
2022/04/09 13:28:19;;;;;;;3.42;1.10;;;;;;;;;;5095402;28;20058;-72
2022/04/09 13:30:45;;;;;;;8.93;1.20;;;;;;;;;;5072442;28;20028;-72
2022/04/09 13:33:11;;;;;;;6.13;0.82;;;;;;;;;;5090931;28;20024;-72
2022/04/09 13:35:38;;;;;;;3.13;0.90;;;;;;;;;;5089416;28;20064;-71
2022/04/09 13:38:04;;;;;;;9.02;1.17;;;;;;;;;;5090889;28;20032;-72
2022/04/09 13:40:30;;;;;;;2.13;0.93;;;;;;;;;;5088994;28;20028;-72
2022/04/09 13:42:56;;;;;;;5.63;1.60;;;;;;;;;;5086437;28;20033;-72
2022/04/09 13:45:22;;;;;;;7.22;1.33;;;;;;;;;;5087999;28;20031;-70
2022/04/09 13:47:49;;;;;;;3.88;1.30;;;;;;;;;;5068629;28;20016;-72
2022/04/09 13:50:15;;;;;;;8.32;1.38;;;;;;;;;;5085514;28;20040;-72
2022/04/09 13:55:48;;;;;;;5.65;1.30;;;;;;;;;;5083266;28;20132;-71
2022/04/09 13:58:14;;;;;;;3.17;1.40;;;;;;;;;;5088421;28;20023;-71
2022/04/09 14:00:40;;;;;;;5.18;0.90;;;;;;;;;;5089581;28;20035;-72
2022/04/09 14:03:07;;;;;;;6.85;1.52;;;;;;;;;;5090043;28;20028;-72
2022/04/09 14:08:19;;;;;;;4.72;1.13;;;;;;;;;;5092291;28;20055;-72
2022/04/09 14:10:45;;;;;;;2.38;1.05;;;;;;;;;;5090314;28;20053;-72
2022/04/09 14:13:11;;;;;;;1.73;1.25;;;;;;;;;;5070433;28;20036;-72
2022/04/09 14:15:37;;;;;;;4.85;1.02;;;;;;;;;;5084618;28;20012;-71
2022/04/09 14:18:03;;;;;;;6.15;1.20;;;;;;;;;;5089790;28;20401;-71
2022/04/09 14:20:29;;;;;;;3.30;0.90;;;;;;;;;;5089924;28;20484;-71
2022/04/09 14:22:55;;;;;;;4.82;1.35;;;;;;;;;;5090217;28;20028;-71
2022/04/09 14:25:21;;;;;;;5.07;1.35;;;;;;;;;;5089300;28;20043;-72
2022/04/09 14:27:47;;;;;;;6.40;1.40;;;;;;;;;;5089571;28;20388;-72
2022/04/09 14:30:13;;;;;;;1.70;1.10;;;;;;;;;;5088433;28;20062;-71
2022/04/09 14:32:41;;;;;;;6.22;1.27;;;;;;;;;;5090236;28;20104;-72
2022/04/09 14:35:07;;;;;;;3.67;1.50;;;;;;;;;;5089636;28;20066;-72
2022/04/09 14:37:33;;;;;;;1.33;1.02;;;;;;;;;;5089983;28;20024;-71
2022/04/09 14:39:59;;;;;;;6.03;1.00;;;;;;;;;;5089645;28;20040;-72
2022/04/09 14:42:25;;;;;;;4.90;1.40;;;;;;;;;;5089605;28;20038;-71
2022/04/09 14:44:51;;;;;;;2.40;1.10;;;;;;;;;;5088704;28;20020;-71
2022/04/09 14:47:17;;;;;;;3.05;1.10;;;;;;;;;;5089371;28;20301;-71
2022/04/09 14:49:43;;;;;;;2.17;1.23;;;;;;;;;;5088783;28;20081;-71